sensor_id;sensor_type;location;lat;lon;timestamp;P1;durP1;ratioP1;P2;durP2;ratioP2
56893;SDS011;43392;50.078;13.704;2024-02-14T00:01:14;12.90;;;6.45;;
56893;SDS011;43392;50.078;13.704;2024-02-14T00:03:42;22.27;;;9.82;;
56893;SDS011;43392;50.078;13.704;2024-02-14T00:06:08;25.67;;;10.95;;
56893;SDS011;43392;50.078;13.704;2024-02-14T00:08:37;18.17;;;9.35;;
56893;SDS011;43392;50.078;13.704;2024-02-14T00:11:04;25.15;;;10.75;;
56893;SDS011;43392;50.078;13.704;2024-02-14T00:13:30;24.45;;;10.43;;
56893;SDS011;43392;50.078;13.704;2024-02-14T00:15:59;21.45;;;10.90;;
56893;SDS011;43392;50.078;13.704;2024-02-14T00:18:25;21.38;;;10.80;;
56893;SDS011;43392;50.078;13.704;2024-02-14T00:20:53;20.40;;;10.07;;
56893;SDS011;43392;50.078;13.704;2024-02-14T00:23:20;19.58;;;9.80;;
56893;SDS011;43392;50.078;13.704;2024-02-14T00:25:46;18.13;;;9.80;;
56893;SDS011;43392;50.078;13.704;2024-02-14T00:28:13;17.17;;;9.68;;
56893;SDS011;43392;50.078;13.704;2024-02-14T00:30:40;13.18;;;6.82;;
56893;SDS011;43392;50.078;13.704;2024-02-14T00:33:06;11.43;;;5.72;;
56893;SDS011;43392;50.078;13.704;2024-02-14T00:35:33;12.80;;;6.55;;
56893;SDS011;43392;50.078;13.704;2024-02-14T00:38:01;16.60;;;7.80;;
56893;SDS011;43392;50.078;13.704;2024-02-14T00:40:27;15.90;;;7.18;;
56893;SDS011;43392;50.078;13.704;2024-02-14T00:42:54;13.25;;;6.40;;
56893;SDS011;43392;50.078;13.704;2024-02-14T00:45:20;16.58;;;7.65;;
56893;SDS011;43392;50.078;13.704;2024-02-14T00:47:47;13.73;;;6.70;;
56893;SDS011;43392;50.078;13.704;2024-02-14T00:50:13;12.27;;;6.35;;
56893;SDS011;43392;50.078;13.704;2024-02-14T00:52:40;13.27;;;6.90;;
56893;SDS011;43392;50.078;13.704;2024-02-14T00:55:08;14.45;;;7.90;;
56893;SDS011;43392;50.078;13.704;2024-02-14T00:57:35;14.52;;;7.47;;
56893;SDS011;43392;50.078;13.704;2024-02-14T01:00:01;13.40;;;6.75;;
56893;SDS011;43392;50.078;13.704;2024-02-14T01:02:28;13.02;;;7.03;;
56893;SDS011;43392;50.078;13.704;2024-02-14T01:04:55;13.45;;;7.00;;
56893;SDS011;43392;50.078;13.704;2024-02-14T01:07:21;14.90;;;6.60;;
56893;SDS011;43392;50.078;13.704;2024-02-14T01:09:48;57.60;;;28.35;;
56893;SDS011;43392;50.078;13.704;2024-02-14T01:12:16;25.20;;;12.82;;
56893;SDS011;43392;50.078;13.704;2024-02-14T01:14:43;23.88;;;12.10;;
56893;SDS011;43392;50.078;13.704;2024-02-14T01:17:09;17.17;;;7.78;;
56893;SDS011;43392;50.078;13.704;2024-02-14T01:19:36;13.73;;;5.53;;
56893;SDS011;43392;50.078;13.704;2024-02-14T01:22:03;10.48;;;3.90;;
56893;SDS011;43392;50.078;13.704;2024-02-14T01:24:30;9.35;;;4.63;;
56893;SDS011;43392;50.078;13.704;2024-02-14T01:26:57;14.80;;;4.57;;
56893;SDS011;43392;50.078;13.704;2024-02-14T01:29:25;12.90;;;5.13;;
56893;SDS011;43392;50.078;13.704;2024-02-14T01:31:52;9.55;;;4.85;;
56893;SDS011;43392;50.078;13.704;2024-02-14T01:34:20;10.18;;;5.15;;
56893;SDS011;43392;50.078;13.704;2024-02-14T01:36:47;12.95;;;6.00;;
56893;SDS011;43392;50.078;13.704;2024-02-14T01:39:14;12.65;;;5.72;;
56893;SDS011;43392;50.078;13.704;2024-02-14T01:41:44;11.05;;;5.00;;
56893;SDS011;43392;50.078;13.704;2024-02-14T01:44:11;9.48;;;4.50;;
56893;SDS011;43392;50.078;13.704;2024-02-14T01:46:39;8.80;;;4.40;;
56893;SDS011;43392;50.078;13.704;2024-02-14T01:49:05;11.93;;;5.53;;
56893;SDS011;43392;50.078;13.704;2024-02-14T01:51:32;10.13;;;4.85;;
56893;SDS011;43392;50.078;13.704;2024-02-14T01:54:01;10.50;;;4.57;;
56893;SDS011;43392;50.078;13.704;2024-02-14T01:56:29;8.35;;;4.68;;
56893;SDS011;43392;50.078;13.704;2024-02-14T01:58:55;10.20;;;4.70;;
56893;SDS011;43392;50.078;13.704;2024-02-14T02:01:23;10.35;;;4.43;;
56893;SDS011;43392;50.078;13.704;2024-02-14T02:03:51;8.35;;;4.85;;
56893;SDS011;43392;50.078;13.704;2024-02-14T02:06:18;10.27;;;4.50;;
56893;SDS011;43392;50.078;13.704;2024-02-14T02:08:45;13.57;;;5.60;;
56893;SDS011;43392;50.078;13.704;2024-02-14T02:11:11;12.40;;;5.70;;
56893;SDS011;43392;50.078;13.704;2024-02-14T02:13:39;12.23;;;5.68;;
56893;SDS011;43392;50.078;13.704;2024-02-14T02:16:06;14.65;;;5.82;;
56893;SDS011;43392;50.078;13.704;2024-02-14T02:18:33;9.82;;;5.00;;
56893;SDS011;43392;50.078;13.704;2024-02-14T02:21:01;9.70;;;5.20;;
56893;SDS011;43392;50.078;13.704;2024-02-14T02:23:30;11.82;;;5.88;;
56893;SDS011;43392;50.078;13.704;2024-02-14T02:25:57;12.00;;;5.82;;
56893;SDS011;43392;50.078;13.704;2024-02-14T02:28:23;11.25;;;5.63;;
56893;SDS011;43392;50.078;13.704;2024-02-14T02:30:50;13.02;;;6.13;;
56893;SDS011;43392;50.078;13.704;2024-02-14T02:33:18;12.98;;;6.57;;
56893;SDS011;43392;50.078;13.704;2024-02-14T02:35:46;13.00;;;6.15;;
56893;SDS011;43392;50.078;13.704;2024-02-14T02:38:15;11.30;;;5.60;;
56893;SDS011;43392;50.078;13.704;2024-02-14T02:40:43;14.15;;;6.70;;
56893;SDS011;43392;50.078;13.704;2024-02-14T02:43:09;15.13;;;6.22;;
56893;SDS011;43392;50.078;13.704;2024-02-14T02:45:36;13.75;;;6.28;;
56893;SDS011;43392;50.078;13.704;2024-02-14T02:48:04;11.75;;;6.18;;
56893;SDS011;43392;50.078;13.704;2024-02-14T02:50:31;12.30;;;5.95;;
56893;SDS011;43392;50.078;13.704;2024-02-14T02:52:57;10.70;;;5.85;;
56893;SDS011;43392;50.078;13.704;2024-02-14T02:55:24;11.55;;;6.22;;
56893;SDS011;43392;50.078;13.704;2024-02-14T02:57:53;10.55;;;5.70;;
56893;SDS011;43392;50.078;13.704;2024-02-14T03:00:20;13.75;;;5.90;;
56893;SDS011;43392;50.078;13.704;2024-02-14T03:02:47;13.30;;;5.63;;
56893;SDS011;43392;50.078;13.704;2024-02-14T03:05:14;10.93;;;5.93;;
56893;SDS011;43392;50.078;13.704;2024-02-14T03:07:43;11.15;;;5.80;;
56893;SDS011;43392;50.078;13.704;2024-02-14T03:10:12;13.35;;;5.35;;
56893;SDS011;43392;50.078;13.704;2024-02-14T03:12:40;12.05;;;6.85;;
56893;SDS011;43392;50.078;13.704;2024-02-14T03:15:08;10.68;;;5.50;;
56893;SDS011;43392;50.078;13.704;2024-02-14T03:17:35;11.65;;;6.68;;
56893;SDS011;43392;50.078;13.704;2024-02-14T03:20:02;12.63;;;7.13;;
56893;SDS011;43392;50.078;13.704;2024-02-14T03:22:32;17.30;;;7.18;;
56893;SDS011;43392;50.078;13.704;2024-02-14T03:24:59;13.32;;;7.80;;
56893;SDS011;43392;50.078;13.704;2024-02-14T03:27:25;15.60;;;7.70;;
56893;SDS011;43392;50.078;13.704;2024-02-14T03:29:52;15.35;;;7.72;;
56893;SDS011;43392;50.078;13.704;2024-02-14T03:32:21;15.38;;;8.20;;
56893;SDS011;43392;50.078;13.704;2024-02-14T03:34:48;14.95;;;7.82;;
56893;SDS011;43392;50.078;13.704;2024-02-14T03:37:15;13.70;;;7.72;;
56893;SDS011;43392;50.078;13.704;2024-02-14T03:39:42;12.88;;;7.32;;
56893;SDS011;43392;50.078;13.704;2024-02-14T03:42:10;13.65;;;7.40;;
56893;SDS011;43392;50.078;13.704;2024-02-14T03:44:37;13.35;;;7.40;;
56893;SDS011;43392;50.078;13.704;2024-02-14T03:47:04;13.55;;;7.82;;
56893;SDS011;43392;50.078;13.704;2024-02-14T03:49:32;17.80;;;8.07;;
56893;SDS011;43392;50.078;13.704;2024-02-14T03:51:59;14.52;;;7.38;;
56893;SDS011;43392;50.078;13.704;2024-02-14T03:54:26;15.85;;;8.45;;
56893;SDS011;43392;50.078;13.704;2024-02-14T03:56:53;14.98;;;8.25;;
56893;SDS011;43392;50.078;13.704;2024-02-14T03:59:20;16.77;;;8.52;;
56893;SDS011;43392;50.078;13.704;2024-02-14T04:01:49;14.50;;;8.20;;
56893;SDS011;43392;50.078;13.704;2024-02-14T04:04:18;12.18;;;7.35;;
56893;SDS011;43392;50.078;13.704;2024-02-14T04:06:46;13.40;;;7.65;;
56893;SDS011;43392;50.078;13.704;2024-02-14T04:09:12;16.10;;;7.57;;
56893;SDS011;43392;50.078;13.704;2024-02-14T04:11:39;16.73;;;7.70;;
56893;SDS011;43392;50.078;13.704;2024-02-14T04:14:06;14.77;;;7.82;;
56893;SDS011;43392;50.078;13.704;2024-02-14T04:16:32;15.80;;;7.70;;
56893;SDS011;43392;50.078;13.704;2024-02-14T04:19:01;14.90;;;7.88;;
56893;SDS011;43392;50.078;13.704;2024-02-14T04:21:27;13.57;;;7.78;;
56893;SDS011;43392;50.078;13.704;2024-02-14T04:23:56;14.15;;;7.25;;
56893;SDS011;43392;50.078;13.704;2024-02-14T04:26:22;12.85;;;7.13;;
56893;SDS011;43392;50.078;13.704;2024-02-14T04:28:49;12.73;;;6.55;;
56893;SDS011;43392;50.078;13.704;2024-02-14T04:31:15;12.35;;;7.10;;
56893;SDS011;43392;50.078;13.704;2024-02-14T04:33:42;14.30;;;6.50;;
56893;SDS011;43392;50.078;13.704;2024-02-14T04:36:11;11.50;;;6.18;;
56893;SDS011;43392;50.078;13.704;2024-02-14T04:38:38;11.82;;;5.53;;
56893;SDS011;43392;50.078;13.704;2024-02-14T04:41:07;10.90;;;5.85;;
56893;SDS011;43392;50.078;13.704;2024-02-14T04:43:35;11.00;;;5.55;;
56893;SDS011;43392;50.078;13.704;2024-02-14T04:46:01;12.80;;;5.57;;
56893;SDS011;43392;50.078;13.704;2024-02-14T04:48:31;10.88;;;5.45;;
56893;SDS011;43392;50.078;13.704;2024-02-14T04:50:58;13.55;;;5.47;;
56893;SDS011;43392;50.078;13.704;2024-02-14T04:53:25;11.10;;;4.95;;
56893;SDS011;43392;50.078;13.704;2024-02-14T04:55:51;9.77;;;4.53;;
56893;SDS011;43392;50.078;13.704;2024-02-14T04:58:20;12.43;;;4.35;;
56893;SDS011;43392;50.078;13.704;2024-02-14T05:00:46;13.23;;;5.75;;
56893;SDS011;43392;50.078;13.704;2024-02-14T05:03:13;12.98;;;5.85;;
56893;SDS011;43392;50.078;13.704;2024-02-14T05:05:40;14.48;;;6.68;;
56893;SDS011;43392;50.078;13.704;2024-02-14T05:08:06;13.02;;;6.40;;
56893;SDS011;43392;50.078;13.704;2024-02-14T05:10:33;12.23;;;6.18;;
56893;SDS011;43392;50.078;13.704;2024-02-14T05:12:59;12.43;;;5.78;;
56893;SDS011;43392;50.078;13.704;2024-02-14T05:15:28;10.82;;;5.78;;
56893;SDS011;43392;50.078;13.704;2024-02-14T05:17:55;11.00;;;4.90;;
56893;SDS011;43392;50.078;13.704;2024-02-14T05:20:22;10.77;;;5.00;;
56893;SDS011;43392;50.078;13.704;2024-02-14T05:22:48;12.38;;;5.03;;
56893;SDS011;43392;50.078;13.704;2024-02-14T05:25:15;9.23;;;5.07;;
56893;SDS011;43392;50.078;13.704;2024-02-14T05:27:43;12.70;;;5.43;;
56893;SDS011;43392;50.078;13.704;2024-02-14T05:30:10;11.98;;;4.95;;
56893;SDS011;43392;50.078;13.704;2024-02-14T05:32:38;8.82;;;4.82;;
56893;SDS011;43392;50.078;13.704;2024-02-14T05:35:05;8.35;;;4.60;;
56893;SDS011;43392;50.078;13.704;2024-02-14T05:37:33;11.55;;;4.93;;
56893;SDS011;43392;50.078;13.704;2024-02-14T05:39:59;11.35;;;4.78;;
56893;SDS011;43392;50.078;13.704;2024-02-14T05:42:26;11.88;;;4.88;;
56893;SDS011;43392;50.078;13.704;2024-02-14T05:44:52;9.90;;;3.78;;
56893;SDS011;43392;50.078;13.704;2024-02-14T05:47:19;10.80;;;4.75;;
56893;SDS011;43392;50.078;13.704;2024-02-14T05:49:47;8.85;;;4.20;;
56893;SDS011;43392;50.078;13.704;2024-02-14T05:52:14;9.57;;;5.28;;
56893;SDS011;43392;50.078;13.704;2024-02-14T05:54:41;10.27;;;4.93;;
56893;SDS011;43392;50.078;13.704;2024-02-14T05:57:08;12.30;;;5.85;;
56893;SDS011;43392;50.078;13.704;2024-02-14T05:59:34;12.93;;;5.35;;
56893;SDS011;43392;50.078;13.704;2024-02-14T06:02:01;12.32;;;6.40;;
56893;SDS011;43392;50.078;13.704;2024-02-14T06:04:30;11.77;;;5.88;;
56893;SDS011;43392;50.078;13.704;2024-02-14T06:06:58;11.48;;;5.72;;
56893;SDS011;43392;50.078;13.704;2024-02-14T06:09:25;13.75;;;5.90;;
56893;SDS011;43392;50.078;13.704;2024-02-14T06:11:52;12.63;;;6.20;;
56893;SDS011;43392;50.078;13.704;2024-02-14T06:14:18;14.75;;;6.38;;
56893;SDS011;43392;50.078;13.704;2024-02-14T06:16:45;14.18;;;6.53;;
56893;SDS011;43392;50.078;13.704;2024-02-14T06:19:12;12.88;;;7.35;;
56893;SDS011;43392;50.078;13.704;2024-02-14T06:21:38;15.55;;;7.07;;
56893;SDS011;43392;50.078;13.704;2024-02-14T06:24:06;14.02;;;6.90;;
56893;SDS011;43392;50.078;13.704;2024-02-14T06:26:35;13.98;;;7.15;;
56893;SDS011;43392;50.078;13.704;2024-02-14T06:29:02;15.15;;;6.50;;
56893;SDS011;43392;50.078;13.704;2024-02-14T06:31:28;13.68;;;6.53;;
56893;SDS011;43392;50.078;13.704;2024-02-14T06:33:55;14.35;;;6.90;;
56893;SDS011;43392;50.078;13.704;2024-02-14T06:36:21;10.20;;;6.00;;
56893;SDS011;43392;50.078;13.704;2024-02-14T06:38:48;12.93;;;6.20;;
56893;SDS011;43392;50.078;13.704;2024-02-14T06:41:17;13.75;;;6.78;;
56893;SDS011;43392;50.078;13.704;2024-02-14T06:43:45;15.00;;;5.72;;
56893;SDS011;43392;50.078;13.704;2024-02-14T06:46:11;12.45;;;5.68;;
56893;SDS011;43392;50.078;13.704;2024-02-14T06:48:38;10.85;;;5.78;;
56893;SDS011;43392;50.078;13.704;2024-02-14T06:51:06;9.73;;;5.13;;
56893;SDS011;43392;50.078;13.704;2024-02-14T06:53:33;9.10;;;5.30;;
56893;SDS011;43392;50.078;13.704;2024-02-14T06:56:00;9.10;;;4.75;;
56893;SDS011;43392;50.078;13.704;2024-02-14T06:58:28;9.43;;;5.07;;
56893;SDS011;43392;50.078;13.704;2024-02-14T07:00:55;11.65;;;5.18;;
56893;SDS011;43392;50.078;13.704;2024-02-14T07:03:21;9.45;;;4.90;;
56893;SDS011;43392;50.078;13.704;2024-02-14T07:05:48;13.30;;;5.47;;
56893;SDS011;43392;50.078;13.704;2024-02-14T07:08:14;14.80;;;5.70;;
56893;SDS011;43392;50.078;13.704;2024-02-14T07:10:41;10.68;;;5.18;;
56893;SDS011;43392;50.078;13.704;2024-02-14T07:13:07;15.23;;;5.78;;
56893;SDS011;43392;50.078;13.704;2024-02-14T07:15:35;11.77;;;5.90;;
56893;SDS011;43392;50.078;13.704;2024-02-14T07:18:03;11.98;;;4.97;;
56893;SDS011;43392;50.078;13.704;2024-02-14T07:20:30;12.55;;;5.60;;
56893;SDS011;43392;50.078;13.704;2024-02-14T07:22:57;11.30;;;6.05;;
56893;SDS011;43392;50.078;13.704;2024-02-14T07:25:23;16.83;;;7.68;;
56893;SDS011;43392;50.078;13.704;2024-02-14T07:27:50;21.40;;;8.85;;
56893;SDS011;43392;50.078;13.704;2024-02-14T07:30:17;13.15;;;7.18;;
56893;SDS011;43392;50.078;13.704;2024-02-14T07:32:46;12.60;;;6.57;;
56893;SDS011;43392;50.078;13.704;2024-02-14T07:35:12;15.88;;;7.88;;
56893;SDS011;43392;50.078;13.704;2024-02-14T07:37:39;15.00;;;7.60;;
56893;SDS011;43392;50.078;13.704;2024-02-14T07:40:07;13.65;;;7.63;;
56893;SDS011;43392;50.078;13.704;2024-02-14T07:42:34;15.85;;;9.02;;
56893;SDS011;43392;50.078;13.704;2024-02-14T07:45:01;12.63;;;7.20;;
56893;SDS011;43392;50.078;13.704;2024-02-14T07:47:28;16.42;;;7.63;;
56893;SDS011;43392;50.078;13.704;2024-02-14T07:49:56;15.82;;;8.15;;
56893;SDS011;43392;50.078;13.704;2024-02-14T07:52:23;15.40;;;7.65;;
56893;SDS011;43392;50.078;13.704;2024-02-14T07:54:51;16.90;;;8.55;;
56893;SDS011;43392;50.078;13.704;2024-02-14T07:57:19;14.65;;;7.35;;
56893;SDS011;43392;50.078;13.704;2024-02-14T07:59:45;15.60;;;8.25;;
56893;SDS011;43392;50.078;13.704;2024-02-14T08:02:12;15.18;;;8.40;;
56893;SDS011;43392;50.078;13.704;2024-02-14T08:04:38;14.32;;;7.25;;
56893;SDS011;43392;50.078;13.704;2024-02-14T08:07:06;17.55;;;8.55;;
56893;SDS011;43392;50.078;13.704;2024-02-14T08:09:33;15.77;;;7.90;;
56893;SDS011;43392;50.078;13.704;2024-02-14T08:11:59;16.20;;;8.68;;
56893;SDS011;43392;50.078;13.704;2024-02-14T08:14:26;14.32;;;7.90;;
56893;SDS011;43392;50.078;13.704;2024-02-14T08:16:52;14.30;;;7.85;;
56893;SDS011;43392;50.078;13.704;2024-02-14T08:19:19;12.82;;;6.88;;
56893;SDS011;43392;50.078;13.704;2024-02-14T08:21:46;13.50;;;7.30;;
56893;SDS011;43392;50.078;13.704;2024-02-14T08:24:14;15.35;;;7.35;;
56893;SDS011;43392;50.078;13.704;2024-02-14T08:26:40;15.43;;;7.10;;
56893;SDS011;43392;50.078;13.704;2024-02-14T08:29:07;13.60;;;7.30;;
56893;SDS011;43392;50.078;13.704;2024-02-14T08:31:36;17.02;;;7.65;;
56893;SDS011;43392;50.078;13.704;2024-02-14T08:34:03;12.77;;;7.30;;
56893;SDS011;43392;50.078;13.704;2024-02-14T08:36:29;14.55;;;7.05;;
56893;SDS011;43392;50.078;13.704;2024-02-14T08:38:56;12.38;;;6.30;;
56893;SDS011;43392;50.078;13.704;2024-02-14T08:41:24;11.68;;;6.50;;
56893;SDS011;43392;50.078;13.704;2024-02-14T08:43:50;11.68;;;7.00;;
56893;SDS011;43392;50.078;13.704;2024-02-14T08:46:17;11.75;;;6.20;;
56893;SDS011;43392;50.078;13.704;2024-02-14T08:48:43;14.77;;;6.97;;
56893;SDS011;43392;50.078;13.704;2024-02-14T08:51:11;15.25;;;7.70;;
56893;SDS011;43392;50.078;13.704;2024-02-14T08:53:38;15.48;;;8.23;;
56893;SDS011;43392;50.078;13.704;2024-02-14T08:56:06;15.18;;;8.20;;
56893;SDS011;43392;50.078;13.704;2024-02-14T08:58:34;14.18;;;7.90;;
56893;SDS011;43392;50.078;13.704;2024-02-14T09:01:01;17.10;;;8.18;;
56893;SDS011;43392;50.078;13.704;2024-02-14T09:03:27;13.82;;;7.25;;
56893;SDS011;43392;50.078;13.704;2024-02-14T09:05:56;11.90;;;7.00;;
56893;SDS011;43392;50.078;13.704;2024-02-14T09:08:22;11.52;;;6.57;;
56893;SDS011;43392;50.078;13.704;2024-02-14T09:10:49;11.80;;;6.18;;
56893;SDS011;43392;50.078;13.704;2024-02-14T09:13:15;14.70;;;6.85;;
56893;SDS011;43392;50.078;13.704;2024-02-14T09:15:43;14.70;;;6.80;;
56893;SDS011;43392;50.078;13.704;2024-02-14T09:18:10;14.68;;;6.85;;
56893;SDS011;43392;50.078;13.704;2024-02-14T09:20:37;13.85;;;6.80;;
56893;SDS011;43392;50.078;13.704;2024-02-14T09:23:03;11.38;;;6.07;;
56893;SDS011;43392;50.078;13.704;2024-02-14T09:25:30;13.07;;;6.32;;
56893;SDS011;43392;50.078;13.704;2024-02-14T09:27:56;14.63;;;7.32;;
56893;SDS011;43392;50.078;13.704;2024-02-14T09:30:23;12.48;;;6.65;;
56893;SDS011;43392;50.078;13.704;2024-02-14T09:32:51;11.98;;;6.63;;
56893;SDS011;43392;50.078;13.704;2024-02-14T09:35:18;11.90;;;6.93;;
56893;SDS011;43392;50.078;13.704;2024-02-14T09:37:44;12.38;;;7.03;;
56893;SDS011;43392;50.078;13.704;2024-02-14T09:40:11;13.95;;;7.05;;
56893;SDS011;43392;50.078;13.704;2024-02-14T09:42:38;15.00;;;7.65;;
56893;SDS011;43392;50.078;13.704;2024-02-14T09:45:10;13.77;;;7.78;;
56893;SDS011;43392;50.078;13.704;2024-02-14T09:47:37;13.13;;;7.53;;
56893;SDS011;43392;50.078;13.704;2024-02-14T09:50:08;19.27;;;8.48;;
56893;SDS011;43392;50.078;13.704;2024-02-14T09:52:36;19.40;;;8.85;;
56893;SDS011;43392;50.078;13.704;2024-02-14T09:55:04;14.77;;;6.72;;
56893;SDS011;43392;50.078;13.704;2024-02-14T09:57:32;13.77;;;7.03;;
56893;SDS011;43392;50.078;13.704;2024-02-14T10:00:00;13.82;;;7.20;;
56893;SDS011;43392;50.078;13.704;2024-02-14T10:02:27;15.05;;;7.55;;
56893;SDS011;43392;50.078;13.704;2024-02-14T10:04:56;13.07;;;7.03;;
56893;SDS011;43392;50.078;13.704;2024-02-14T10:07:23;15.60;;;8.70;;
56893;SDS011;43392;50.078;13.704;2024-02-14T10:09:50;18.42;;;10.35;;
56893;SDS011;43392;50.078;13.704;2024-02-14T10:12:17;21.85;;;12.02;;
56893;SDS011;43392;50.078;13.704;2024-02-14T10:14:44;18.13;;;10.38;;
56893;SDS011;43392;50.078;13.704;2024-02-14T10:17:16;16.00;;;8.73;;
56893;SDS011;43392;50.078;13.704;2024-02-14T10:19:43;13.38;;;7.95;;
56893;SDS011;43392;50.078;13.704;2024-02-14T10:22:20;13.95;;;7.78;;
56893;SDS011;43392;50.078;13.704;2024-02-14T10:24:48;12.35;;;7.35;;
56893;SDS011;43392;50.078;13.704;2024-02-14T10:27:15;13.60;;;7.32;;
56893;SDS011;43392;50.078;13.704;2024-02-14T10:29:41;13.45;;;7.07;;
56893;SDS011;43392;50.078;13.704;2024-02-14T10:32:09;18.48;;;7.78;;
56893;SDS011;43392;50.078;13.704;2024-02-14T10:34:36;14.85;;;8.57;;
56893;SDS011;43392;50.078;13.704;2024-02-14T10:37:04;13.27;;;6.75;;
56893;SDS011;43392;50.078;13.704;2024-02-14T10:39:32;14.20;;;6.80;;
56893;SDS011;43392;50.078;13.704;2024-02-14T10:42:03;10.98;;;6.13;;
56893;SDS011;43392;50.078;13.704;2024-02-14T10:44:31;14.70;;;7.28;;
56893;SDS011;43392;50.078;13.704;2024-02-14T10:46:57;12.93;;;6.88;;
56893;SDS011;43392;50.078;13.704;2024-02-14T10:49:27;11.50;;;5.78;;
56893;SDS011;43392;50.078;13.704;2024-02-14T10:51:56;14.88;;;6.85;;
56893;SDS011;43392;50.078;13.704;2024-02-14T10:54:27;11.07;;;5.38;;
56893;SDS011;43392;50.078;13.704;2024-02-14T10:56:54;10.30;;;6.20;;
56893;SDS011;43392;50.078;13.704;2024-02-14T10:59:25;12.05;;;6.10;;
56893;SDS011;43392;50.078;13.704;2024-02-14T11:01:53;11.32;;;6.22;;
56893;SDS011;43392;50.078;13.704;2024-02-14T11:04:21;11.15;;;5.18;;
56893;SDS011;43392;50.078;13.704;2024-02-14T11:06:48;9.20;;;5.35;;
56893;SDS011;43392;50.078;13.704;2024-02-14T11:11:45;11.13;;;5.03;;
56893;SDS011;43392;50.078;13.704;2024-02-14T11:14:14;13.82;;;5.60;;
56893;SDS011;43392;50.078;13.704;2024-02-14T11:16:44;11.00;;;5.30;;
56893;SDS011;43392;50.078;13.704;2024-02-14T11:19:12;8.50;;;4.72;;
56893;SDS011;43392;50.078;13.704;2024-02-14T11:21:41;11.00;;;5.32;;
56893;SDS011;43392;50.078;13.704;2024-02-14T11:24:09;11.15;;;5.25;;
56893;SDS011;43392;50.078;13.704;2024-02-14T11:26:40;12.55;;;5.65;;
56893;SDS011;43392;50.078;13.704;2024-02-14T11:29:14;10.50;;;4.72;;
56893;SDS011;43392;50.078;13.704;2024-02-14T11:31:43;12.30;;;4.75;;
56893;SDS011;43392;50.078;13.704;2024-02-14T11:34:12;12.45;;;5.22;;
56893;SDS011;43392;50.078;13.704;2024-02-14T11:36:39;8.13;;;4.10;;
56893;SDS011;43392;50.078;13.704;2024-02-14T11:39:08;7.93;;;3.80;;
56893;SDS011;43392;50.078;13.704;2024-02-14T11:41:35;10.80;;;4.88;;
56893;SDS011;43392;50.078;13.704;2024-02-14T11:44:03;10.82;;;5.07;;
56893;SDS011;43392;50.078;13.704;2024-02-14T11:46:30;10.68;;;5.00;;
56893;SDS011;43392;50.078;13.704;2024-02-14T11:48:59;9.88;;;4.07;;
56893;SDS011;43392;50.078;13.704;2024-02-14T11:51:27;11.50;;;4.57;;
56893;SDS011;43392;50.078;13.704;2024-02-14T11:53:55;8.95;;;4.35;;
56893;SDS011;43392;50.078;13.704;2024-02-14T11:56:22;9.10;;;3.85;;
56893;SDS011;43392;50.078;13.704;2024-02-14T11:58:50;11.48;;;4.00;;
56893;SDS011;43392;50.078;13.704;2024-02-14T12:01:17;9.18;;;3.97;;
56893;SDS011;43392;50.078;13.704;2024-02-14T12:03:44;7.38;;;3.70;;
56893;SDS011;43392;50.078;13.704;2024-02-14T12:06:13;10.93;;;3.15;;
56893;SDS011;43392;50.078;13.704;2024-02-14T12:08:40;8.38;;;3.00;;
56893;SDS011;43392;50.078;13.704;2024-02-14T12:11:07;7.97;;;2.80;;
56893;SDS011;43392;50.078;13.704;2024-02-14T12:13:34;6.20;;;2.63;;
56893;SDS011;43392;50.078;13.704;2024-02-14T12:16:03;10.15;;;3.60;;
56893;SDS011;43392;50.078;13.704;2024-02-14T12:18:32;8.55;;;3.05;;
56893;SDS011;43392;50.078;13.704;2024-02-14T12:21:05;6.13;;;2.58;;
56893;SDS011;43392;50.078;13.704;2024-02-14T12:23:35;7.47;;;2.83;;
56893;SDS011;43392;50.078;13.704;2024-02-14T12:26:02;5.60;;;2.40;;
56893;SDS011;43392;50.078;13.704;2024-02-14T12:28:29;10.02;;;2.20;;
56893;SDS011;43392;50.078;13.704;2024-02-14T12:30:57;7.32;;;3.08;;
56893;SDS011;43392;50.078;13.704;2024-02-14T12:33:24;8.18;;;2.90;;
56893;SDS011;43392;50.078;13.704;2024-02-14T12:35:52;5.32;;;2.70;;
56893;SDS011;43392;50.078;13.704;2024-02-14T12:38:20;9.00;;;3.10;;
56893;SDS011;43392;50.078;13.704;2024-02-14T12:40:49;9.60;;;2.70;;
56893;SDS011;43392;50.078;13.704;2024-02-14T12:43:16;8.02;;;2.95;;
56893;SDS011;43392;50.078;13.704;2024-02-14T12:45:43;9.75;;;3.45;;
56893;SDS011;43392;50.078;13.704;2024-02-14T12:48:10;6.47;;;2.70;;
56893;SDS011;43392;50.078;13.704;2024-02-14T12:50:39;5.43;;;2.42;;
56893;SDS011;43392;50.078;13.704;2024-02-14T12:53:12;9.18;;;2.65;;
56893;SDS011;43392;50.078;13.704;2024-02-14T12:55:39;9.32;;;3.00;;
56893;SDS011;43392;50.078;13.704;2024-02-14T12:58:07;7.32;;;2.67;;
56893;SDS011;43392;50.078;13.704;2024-02-14T13:00:34;9.27;;;2.75;;
56893;SDS011;43392;50.078;13.704;2024-02-14T13:03:01;6.32;;;2.75;;
56893;SDS011;43392;50.078;13.704;2024-02-14T13:05:29;7.15;;;2.75;;
56893;SDS011;43392;50.078;13.704;2024-02-14T13:07:56;5.97;;;3.08;;
56893;SDS011;43392;50.078;13.704;2024-02-14T13:10:22;8.38;;;2.50;;
56893;SDS011;43392;50.078;13.704;2024-02-14T13:12:49;7.03;;;2.70;;
56893;SDS011;43392;50.078;13.704;2024-02-14T13:15:17;8.00;;;3.30;;
56893;SDS011;43392;50.078;13.704;2024-02-14T13:17:44;10.60;;;3.08;;
56893;SDS011;43392;50.078;13.704;2024-02-14T13:20:11;7.18;;;3.30;;
56893;SDS011;43392;50.078;13.704;2024-02-14T13:22:40;11.90;;;3.80;;
56893;SDS011;43392;50.078;13.704;2024-02-14T13:25:07;10.35;;;3.55;;
56893;SDS011;43392;50.078;13.704;2024-02-14T13:27:34;8.23;;;3.10;;
56893;SDS011;43392;50.078;13.704;2024-02-14T13:30:01;7.38;;;3.10;;
56893;SDS011;43392;50.078;13.704;2024-02-14T13:32:29;8.55;;;4.03;;
56893;SDS011;43392;50.078;13.704;2024-02-14T13:34:56;7.07;;;3.50;;
56893;SDS011;43392;50.078;13.704;2024-02-14T13:37:22;13.60;;;5.97;;
56893;SDS011;43392;50.078;13.704;2024-02-14T13:39:49;19.73;;;9.70;;
56893;SDS011;43392;50.078;13.704;2024-02-14T13:42:16;17.65;;;10.57;;
56893;SDS011;43392;50.078;13.704;2024-02-14T13:44:43;7.95;;;4.00;;
56893;SDS011;43392;50.078;13.704;2024-02-14T13:47:09;7.18;;;3.40;;
56893;SDS011;43392;50.078;13.704;2024-02-14T13:49:37;8.43;;;3.30;;
56893;SDS011;43392;50.078;13.704;2024-02-14T13:52:04;6.05;;;2.53;;
56893;SDS011;43392;50.078;13.704;2024-02-14T13:54:31;6.93;;;2.78;;
56893;SDS011;43392;50.078;13.704;2024-02-14T13:56:57;9.05;;;3.30;;
56893;SDS011;43392;50.078;13.704;2024-02-14T13:59:24;7.65;;;2.65;;
56893;SDS011;43392;50.078;13.704;2024-02-14T14:01:51;5.50;;;2.97;;
56893;SDS011;43392;50.078;13.704;2024-02-14T14:04:17;6.80;;;2.70;;
56893;SDS011;43392;50.078;13.704;2024-02-14T14:06:47;11.05;;;3.13;;
56893;SDS011;43392;50.078;13.704;2024-02-14T14:09:13;8.98;;;3.38;;
56893;SDS011;43392;50.078;13.704;2024-02-14T14:11:40;6.95;;;2.97;;
56893;SDS011;43392;50.078;13.704;2024-02-14T14:14:06;6.60;;;3.55;;
56893;SDS011;43392;50.078;13.704;2024-02-14T14:16:36;8.02;;;3.45;;
56893;SDS011;43392;50.078;13.704;2024-02-14T14:19:03;7.40;;;3.40;;
56893;SDS011;43392;50.078;13.704;2024-02-14T14:21:29;10.48;;;3.60;;
56893;SDS011;43392;50.078;13.704;2024-02-14T14:23:57;9.82;;;3.60;;
56893;SDS011;43392;50.078;13.704;2024-02-14T14:26:24;8.68;;;3.30;;